KMGM/MGM METAR and TAF weather

Enter ICAO airport designator
Station Type Date Time Source
KMGM METAR 2019/02/16 06:53 UTC NOAA

KMGM 160653Z AUTO 21008KT 10SM BKN110 18/15 A2979 RMK AO2 RAB0554E34 SLP084 P0000 T01780150


Station Type Date Time Source
KMGM Decoded METAR 2019/02/16 06:53 UTC NOAA

MONTGOMERY DANNELLY FIELD, AL, United States (KMGM) 32-18N 86-24W 63M
Feb 16, 2019 - 01:53 AM EST / 2019.02.16 0653 UTC
Wind: from the SSW (210 degrees) at 9 MPH (8 KT):0
Visibility: 10 mile(s):0
Sky conditions: mostly cloudy
Precipitation last hour: A trace
Temperature: 64.0 F (17.8 C)
Dew Point: 59.0 F (15.0 C)
Relative Humidity: 83%
Pressure (altimeter): 29.79 in. Hg (1008 hPa)
ob: KMGM 160653Z AUTO 21008KT 10SM BKN110 18/15 A2979 RMK AO2 RAB0554E34 SLP084 P0000 T01780150
cycle: 7

Station Type Date Time Source
KMGM TAF 2019/02/16 06:30 UTC NOAA

TAF KMGM 160529Z 1606/1706 20007KT P6SM -RA BKN035
FM160800 21007KT P6SM -RA OVC025
FM161000 24008KT P6SM -RA BKN008 OVC015
FM161300 29008KT P6SM VCSH OVC007
FM161700 28007KT P6SM OVC015
FM162000 29007KT P6SM BKN025


Example: see airport list